Time;durP1;ratioP1;P1;durP2;ratioP2;P2;SDS_P1;SDS_P2;PMS_P1;PMS_P2;Temp;Humidity;BMP_temperature;BMP_pressure;BME280_temperature;BME280_humidity;BME280_pressure;Samples;Min_cycle;Max_cycle;Signal;HPM_P1;HPM_P2
2024/05/04 00:01:22;;;;;;;7.05;5.43;;;11.80;60.50;;;6.95;100.00;95441.53;5337829;26;20015;-50
2024/05/04 00:03:48;;;;;;;7.15;5.78;;;11.70;60.70;;;6.92;100.00;95434.06;5337544;26;20008;-52
2024/05/04 00:06:14;;;;;;;9.60;5.97;;;11.60;60.80;;;6.89;100.00;95437.22;5336090;26;20016;-50
2024/05/04 00:08:40;;;;;;;9.23;6.10;;;11.60;61.10;;;6.86;100.00;95432.41;5337196;26;20008;-49
2024/05/04 00:11:07;;;;;;;8.18;6.05;;;11.50;61.40;;;6.85;100.00;95437.94;5335961;26;20018;-51
2024/05/04 00:13:32;;;;;;;8.48;5.85;;;11.50;61.50;;;6.81;100.00;95431.53;5337545;26;20094;-51
2024/05/04 00:15:58;;;;;;;9.15;5.82;;;11.40;61.60;;;6.79;100.00;95426.47;5336827;26;20016;-52
2024/05/04 00:18:24;;;;;;;7.25;5.93;;;11.40;61.80;;;6.80;100.00;95432.56;5365401;26;20000;-52
2024/05/04 00:20:53;;;;;;;8.52;5.93;;;11.40;62.00;;;6.79;100.00;95429.13;5335904;26;20487;-56
2024/05/04 00:23:20;;;;;;;9.40;6.00;;;11.40;62.10;;;6.80;100.00;95429.94;5341039;26;20032;-51
2024/05/04 00:25:46;;;;;;;7.40;5.68;;;11.40;62.30;;;6.80;100.00;95424.63;5340155;26;20019;-48
2024/05/04 00:28:12;;;;;;;7.35;5.50;;;11.40;62.40;;;6.81;100.00;95426.25;5335238;26;20401;-52
2024/05/04 00:30:37;;;;;;;9.73;5.55;;;11.50;62.50;;;6.78;100.00;95424.09;5337067;26;20012;-49
2024/05/04 00:33:04;;;;;;;8.90;6.10;;;11.40;62.50;;;6.83;100.00;95421.50;5337489;26;20040;-55
2024/05/04 00:35:29;;;;;;;7.82;5.60;;;11.50;62.60;;;6.87;100.00;95412.84;5336049;26;20015;-52
2024/05/04 00:37:55;;;;;;;10.15;6.07;;;11.50;62.70;;;6.89;100.00;95415.22;5336815;26;20005;-50
2024/05/04 00:40:21;;;;;;;9.20;5.70;;;11.50;62.80;;;6.92;100.00;95412.88;5336742;26;20367;-50
2024/05/04 00:42:47;;;;;;;6.88;5.63;;;11.50;62.80;;;6.97;100.00;95414.00;5336933;26;20077;-52
2024/05/04 00:45:13;;;;;;;8.15;5.97;;;11.60;62.90;;;6.99;100.00;95410.06;5337027;26;20000;-49
2024/05/04 00:47:39;;;;;;;8.55;6.18;;;11.60;63.00;;;7.00;100.00;95414.31;5342505;26;20005;-52
2024/05/04 00:50:10;;;;;;;6.50;5.63;;;11.60;63.00;;;7.05;100.00;95413.56;5336626;26;20482;-49
2024/05/04 00:52:37;;;;;;;6.55;5.75;;;11.70;63.30;;;7.08;100.00;95405.97;5335660;26;20012;-53
2024/05/04 00:55:07;;;;;;;13.40;6.45;;;11.70;63.20;;;7.12;100.00;95407.06;5340480;26;20011;-53
2024/05/04 00:57:35;;;;;;;9.82;5.72;;;11.70;63.40;;;7.14;100.00;95404.94;5336227;26;20040;-55
2024/05/04 01:00:04;;;;;;;7.03;5.75;;;11.80;63.40;;;7.14;100.00;95407.59;5333466;26;20020;-54
2024/05/04 01:02:30;;;;;;;7.07;5.63;;;11.80;63.50;;;7.17;100.00;95399.16;5336771;26;20004;-50
2024/05/04 01:04:57;;;;;;;7.57;6.03;;;11.80;63.50;;;7.24;100.00;95403.47;5364463;26;20127;-50
2024/05/04 01:07:25;;;;;;;6.25;5.63;;;11.80;63.60;;;7.28;100.00;95405.38;5336024;26;20082;-50
2024/05/04 01:09:51;;;;;;;8.93;5.20;;;11.80;63.70;;;7.30;100.00;95403.31;5334522;26;20010;-53
2024/05/04 01:12:18;;;;;;;8.57;5.55;;;11.90;63.70;;;7.33;100.00;95402.81;5335323;26;20012;-52
2024/05/04 01:14:46;;;;;;;5.97;4.88;;;11.90;63.70;;;7.36;100.00;95404.13;5334985;26;20008;-49
2024/05/04 01:17:12;;;;;;;7.43;4.78;;;11.90;63.80;;;7.39;100.00;95401.78;5335206;26;20004;-50
2024/05/04 01:19:38;;;;;;;6.93;5.13;;;12.00;63.80;;;7.41;100.00;95401.56;5336177;26;20463;-50
2024/05/04 01:22:05;;;;;;;7.10;5.40;;;12.00;63.80;;;7.43;100.00;95404.75;5335804;26;20023;-52
2024/05/04 01:24:31;;;;;;;8.02;5.18;;;12.10;63.80;;;7.45;100.00;95400.00;5339256;26;20008;-49
2024/05/04 01:26:58;;;;;;;5.50;4.43;;;12.10;63.80;;;7.46;100.00;95396.31;5335698;26;20008;-50
2024/05/04 01:29:24;;;;;;;5.72;4.47;;;12.10;63.80;;;7.48;100.00;95399.50;5334779;26;20008;-51
2024/05/04 01:31:50;;;;;;;6.63;4.40;;;12.10;63.80;;;7.52;100.00;95405.09;5335420;26;20008;-50
2024/05/04 01:34:16;;;;;;;4.53;3.70;;;12.10;63.80;;;7.55;100.00;95391.34;5338056;26;23170;-54
2024/05/04 01:36:42;;;;;;;3.70;3.30;;;12.20;63.80;;;7.56;100.00;95401.72;5336094;26;20016;-53
2024/05/04 01:39:07;;;;;;;3.95;3.28;;;12.20;63.70;;;7.54;100.00;95395.84;5324112;26;20016;-50
2024/05/04 01:41:46;;;;;;;4.53;3.50;;;12.20;63.70;;;7.56;100.00;95390.31;5334537;26;20008;-51
2024/05/04 01:44:12;;;;;;;6.15;3.83;;;12.30;63.90;;;7.61;100.00;95396.44;5324054;26;20471;-51
2024/05/04 01:46:40;;;;;;;4.15;2.80;;;12.30;63.70;;;7.63;100.00;95399.66;5330419;26;20067;-53
2024/05/04 01:49:06;;;;;;;4.57;2.78;;;12.30;63.60;;;7.64;100.00;95398.59;5335700;26;20017;-53
2024/05/04 01:51:32;;;;;;;5.65;2.97;;;12.30;63.50;;;7.65;100.00;95402.06;5335796;26;20085;-54
2024/05/04 01:53:58;;;;;;;3.13;2.28;;;12.30;63.40;;;7.64;100.00;95400.44;5339130;26;20011;-50
2024/05/04 01:56:24;;;;;;;3.55;2.80;;;12.40;63.40;;;7.66;100.00;95401.00;5335708;26;20143;-54
2024/05/04 01:58:50;;;;;;;3.83;2.80;;;12.40;63.30;;;7.70;100.00;95398.66;5333255;26;20063;-53
2024/05/04 02:01:18;;;;;;;5.10;2.70;;;12.40;63.30;;;7.72;100.00;95392.06;5335839;26;20000;-51
2024/05/04 02:03:47;;;;;;;3.20;2.90;;;12.40;63.30;;;7.74;100.00;95394.44;5335781;26;20016;-49
2024/05/04 02:06:14;;;;;;;2.50;2.20;;;12.40;63.30;;;7.77;100.00;95396.59;5333162;26;20008;-48
2024/05/04 02:08:41;;;;;;;2.63;2.40;;;12.40;63.20;;;7.80;100.00;95396.09;5361136;26;20008;-51
2024/05/04 02:11:07;;;;;;;2.97;2.40;;;12.50;63.20;;;7.81;100.00;95390.56;5334104;26;20001;-50
2024/05/04 02:13:33;;;;;;;3.80;2.35;;;12.50;63.20;;;7.82;100.00;95391.34;5335449;26;20502;-54
2024/05/04 02:15:59;;;;;;;2.53;2.10;;;12.50;63.10;;;7.84;100.00;95391.91;5334158;26;20503;-53
2024/05/04 02:18:25;;;;;;;2.55;2.35;;;12.50;63.00;;;7.83;100.00;95390.28;5335121;26;20352;-52
2024/05/04 02:20:51;;;;;;;4.90;2.40;;;12.50;63.00;;;7.81;100.00;95381.81;5335104;26;20015;-52
2024/05/04 02:23:19;;;;;;;2.75;2.42;;;12.60;63.00;;;7.84;100.00;95384.75;5335000;26;20018;-50
2024/05/04 02:25:48;;;;;;;3.90;2.55;;;12.50;62.90;;;7.87;100.00;95388.75;5338253;26;20359;-53
2024/05/04 02:28:14;;;;;;;3.60;2.80;;;12.60;62.90;;;7.87;100.00;95389.56;5333878;26;20094;-51
2024/05/04 02:30:40;;;;;;;5.55;2.50;;;12.60;62.90;;;7.89;100.00;95382.13;5335403;26;20015;-51
2024/05/04 02:33:11;;;;;;;4.22;2.58;;;12.60;62.90;;;7.89;100.00;95387.44;5335566;26;20019;-51
2024/05/04 02:35:36;;;;;;;2.90;2.42;;;12.60;63.00;;;7.89;100.00;95391.94;5335063;26;20073;-50
2024/05/04 02:38:02;;;;;;;3.47;2.70;;;12.60;62.90;;;7.89;100.00;95392.72;5334864;26;20008;-51
2024/05/04 02:40:28;;;;;;;3.28;2.50;;;12.50;62.90;;;7.91;100.00;95391.69;5334208;26;20020;-49
2024/05/04 02:42:54;;;;;;;2.75;2.50;;;12.60;62.90;;;7.88;100.00;95387.69;5335179;26;20008;-52
2024/05/04 02:45:20;;;;;;;3.08;2.78;;;12.60;62.90;;;7.89;100.00;95384.78;5338802;26;20019;-48
2024/05/04 02:47:46;;;;;;;3.17;2.63;;;12.60;63.00;;;7.89;100.00;95374.16;5339812;26;20089;-54
2024/05/04 02:50:12;;;;;;;3.45;3.03;;;12.60;63.00;;;7.91;100.00;95383.75;5338491;26;19996;-48
2024/05/04 02:52:37;;;;;;;3.97;2.78;;;12.60;63.10;;;7.92;100.00;95380.81;5337124;26;20009;-47
2024/05/04 02:55:04;;;;;;;3.80;2.83;;;12.60;63.20;;;7.93;100.00;95385.09;5341924;26;20348;-52
2024/05/04 02:57:30;;;;;;;4.70;3.03;;;12.60;63.20;;;7.92;100.00;95380.03;5338287;26;20028;-52
2024/05/04 02:59:56;;;;;;;4.65;2.67;;;12.50;63.20;;;7.92;100.00;95378.19;5333901;26;20037;-52
2024/05/04 03:02:22;;;;;;;3.85;2.67;;;12.60;63.20;;;7.92;100.00;95374.72;5337895;26;20004;-52
2024/05/04 03:04:47;;;;;;;3.40;2.60;;;12.60;63.20;;;7.91;100.00;95379.25;5369733;26;20000;-51
2024/05/04 03:07:13;;;;;;;3.35;2.67;;;12.60;63.20;;;7.92;100.00;95369.41;5338021;26;20080;-50
2024/05/04 03:09:44;;;;;;;2.88;2.58;;;12.60;63.20;;;7.91;100.00;95365.97;5337600;26;20008;-55
2024/05/04 03:12:09;;;;;;;3.20;2.47;;;12.60;63.30;;;7.91;100.00;95373.13;5335171;26;20085;-48
2024/05/04 03:14:37;;;;;;;4.57;2.90;;;12.60;63.20;;;7.90;100.00;95369.69;5338270;26;19996;-50
2024/05/04 03:17:03;;;;;;;4.18;2.70;;;12.60;63.30;;;7.90;100.00;95367.03;5336330;26;20027;-54
2024/05/04 03:19:29;;;;;;;5.45;2.90;;;12.60;63.20;;;7.90;100.00;95367.03;5337523;26;20020;-52
2024/05/04 03:21:55;;;;;;;7.03;3.08;;;12.60;63.20;;;7.88;100.00;95361.19;5337679;26;20093;-54
2024/05/04 03:24:25;;;;;;;2.90;2.55;;;12.60;63.20;;;7.85;100.00;95356.38;5336904;26;20019;-51
2024/05/04 03:26:52;;;;;;;4.28;2.70;;;12.60;63.20;;;7.85;100.00;95354.53;5337538;26;20023;-50
2024/05/04 03:29:18;;;;;;;4.00;2.97;;;12.60;63.10;;;7.85;100.00;95356.38;5336984;26;20005;-54
2024/05/04 03:31:44;;;;;;;3.95;2.83;;;12.60;63.10;;;7.83;100.00;95351.34;5337630;26;20012;-50
2024/05/04 03:34:11;;;;;;;4.80;3.00;;;12.60;63.10;;;7.84;100.00;95352.13;5336764;26;20023;-52
2024/05/04 03:36:40;;;;;;;5.10;3.10;;;12.60;63.10;;;7.83;100.00;95359.28;5337839;26;20016;-49
2024/05/04 03:39:06;;;;;;;5.78;3.08;;;12.60;63.20;;;7.83;100.00;95363.78;5337708;26;20016;-47
2024/05/04 03:41:32;;;;;;;4.68;3.13;;;12.60;63.00;;;7.83;100.00;95350.50;5336467;26;20000;-53
2024/05/04 03:44:01;;;;;;;3.15;2.85;;;12.60;63.00;;;7.79;100.00;95358.19;5337807;26;20000;-52
2024/05/04 03:46:27;;;;;;;3.67;2.83;;;12.60;63.00;;;7.79;100.00;95355.53;5336270;26;20483;-52
2024/05/04 03:48:53;;;;;;;5.85;3.28;;;12.60;62.90;;;7.78;100.00;95353.94;5337203;26;20004;-53
2024/05/04 03:51:19;;;;;;;3.13;2.72;;;12.60;62.90;;;7.78;100.00;95350.50;5337847;26;20000;-51
2024/05/04 03:53:44;;;;;;;3.58;3.17;;;12.60;62.90;;;7.76;100.00;95352.59;5336554;26;20062;-52
2024/05/04 03:56:10;;;;;;;3.55;3.13;;;12.60;62.80;;;7.75;100.00;95346.47;5337767;26;20011;-51
2024/05/04 03:58:36;;;;;;;3.28;2.97;;;12.60;62.80;;;7.69;100.00;95347.50;5335744;26;20077;-53
2024/05/04 04:01:02;;;;;;;5.05;3.65;;;12.50;62.80;;;7.69;100.00;95338.75;5303104;21;20089;-49
2024/05/04 04:03:28;;;;;;;4.85;3.30;;;12.50;62.80;;;7.67;100.00;95346.94;5245572;27;20050;-45
2024/05/04 04:05:54;;;;;;;5.00;3.70;;;12.50;62.80;;;7.65;100.00;95347.19;5245069;27;20014;-49
2024/05/04 04:08:19;;;;;;;5.50;4.45;;;12.40;62.80;;;7.63;100.00;95343.97;5290887;26;20002;-50
2024/05/04 04:10:45;;;;;;;4.43;3.75;;;12.40;62.90;;;7.60;100.00;95343.69;5291500;26;20010;-49
2024/05/04 04:13:11;;;;;;;4.72;3.63;;;12.40;63.00;;;7.60;100.00;95344.50;5283357;27;20080;-45
2024/05/04 04:15:38;;;;;;;6.10;3.88;;;12.40;63.10;;;7.54;100.00;95350.00;5267203;27;20025;-47
2024/05/04 04:18:05;;;;;;;6.13;4.00;;;12.30;63.20;;;7.57;100.00;95346.84;5294129;26;20018;-49
2024/05/04 04:20:31;;;;;;;6.40;4.10;;;12.30;63.30;;;7.59;100.00;95356.16;5262732;27;20014;-46
2024/05/04 04:22:57;;;;;;;7.53;3.97;;;12.30;63.40;;;7.61;100.00;95361.97;5263771;27;20044;-48
2024/05/04 04:25:23;;;;;;;6.25;4.28;;;12.30;63.40;;;7.64;100.00;95361.47;5269193;27;20088;-47
2024/05/04 04:27:49;;;;;;;4.47;4.05;;;12.40;63.50;;;7.65;100.00;95363.09;5267110;27;20130;-48
2024/05/04 04:30:15;;;;;;;4.85;4.15;;;12.40;63.50;;;7.67;100.00;95364.69;5273133;27;20005;-49
2024/05/04 04:32:41;;;;;;;6.78;4.15;;;12.40;63.50;;;7.67;100.00;95370.00;5272551;27;20016;-48
2024/05/04 04:35:07;;;;;;;5.25;4.20;;;12.50;64.40;;;7.70;100.00;95365.00;5265613;27;20013;-49
2024/05/04 04:37:33;;;;;;;4.65;3.88;;;12.50;63.50;;;7.73;100.00;95367.13;5268706;27;20428;-46
2024/05/04 04:39:59;;;;;;;6.20;4.18;;;12.50;63.50;;;7.79;100.00;95375.94;5293625;26;20024;-46
2024/05/04 04:42:25;;;;;;;7.10;3.97;;;12.60;63.50;;;7.79;100.00;95371.44;5267304;27;20478;-47
2024/05/04 04:44:51;;;;;;;4.65;4.15;;;12.60;63.40;;;7.86;100.00;95366.72;5268380;27;20360;-47
2024/05/04 04:47:17;;;;;;;4.97;3.92;;;12.70;63.40;;;7.94;100.00;95367.31;5267715;27;20010;-50
2024/05/04 04:49:42;;;;;;;4.75;3.58;;;12.80;63.40;;;7.99;100.00;95372.66;5268305;26;20416;-48
2024/05/04 04:52:08;;;;;;;4.63;3.65;;;12.90;63.30;;;8.07;100.00;95380.16;5267426;27;20009;-50
2024/05/04 04:54:35;;;;;;;3.75;3.42;;;13.00;63.30;;;8.14;100.00;95377.28;5319246;26;20013;-52
2024/05/04 04:57:01;;;;;;;4.57;3.83;;;13.10;63.10;;;8.22;100.00;95379.50;5268490;27;20436;-49
2024/05/04 04:59:27;;;;;;;3.92;3.40;;;13.20;63.00;;;8.20;100.00;95376.28;5268817;27;20001;-51
2024/05/04 05:01:53;;;;;;;4.82;3.80;;;13.20;62.80;;;8.24;100.00;95370.22;5268478;26;20009;-49
2024/05/04 05:04:19;;;;;;;4.93;3.75;;;13.20;62.70;;;8.29;100.00;95372.91;5265504;27;20423;-48
2024/05/04 05:06:45;;;;;;;3.97;3.10;;;13.30;62.70;;;8.33;100.00;95366.00;5268223;27;20050;-52
2024/05/04 05:09:11;;;;;;;4.40;3.40;;;13.30;62.70;;;8.39;100.00;95366.09;5267986;27;20084;-52
2024/05/04 05:11:37;;;;;;;4.63;3.53;;;13.40;62.50;;;8.39;100.00;95360.78;5266697;27;20385;-47
2024/05/04 05:14:03;;;;;;;4.38;3.33;;;13.40;62.40;;;8.44;100.00;95366.94;5268241;27;20045;-51
2024/05/04 05:16:29;;;;;;;4.10;3.67;;;13.40;62.20;;;8.50;100.00;95354.50;5267025;27;20006;-48
2024/05/04 05:18:55;;;;;;;4.13;3.05;;;13.50;62.10;;;8.54;100.00;95352.91;5323975;26;20038;-49
2024/05/04 05:21:21;;;;;;;4.55;3.40;;;13.50;62.00;;;8.59;100.00;95363.56;5268179;27;20006;-53
2024/05/04 05:23:47;;;;;;;4.57;3.58;;;13.50;61.90;;;8.64;100.00;95360.13;5266923;27;20413;-50
2024/05/04 05:26:13;;;;;;;4.75;3.30;;;13.60;61.80;;;8.69;100.00;95355.66;5268387;27;20359;-50
2024/05/04 05:28:38;;;;;;;4.45;3.42;;;13.70;61.90;;;8.78;100.00;95355.97;5266216;27;20009;-53
2024/05/04 05:31:06;;;;;;;5.35;3.83;;;13.80;61.70;;;8.89;100.00;95354.16;5269717;27;20006;-52
2024/05/04 05:33:33;;;;;;;3.80;3.35;;;13.90;61.60;;;9.02;100.00;95348.34;5262265;27;20010;-51
2024/05/04 05:35:59;;;;;;;3.33;2.90;;;14.00;61.50;;;9.09;100.00;95346.28;5266803;27;20006;-53
2024/05/04 05:38:25;;;;;;;4.72;4.22;;;14.10;61.30;;;9.30;100.00;95348.97;5279542;27;20020;-54
2024/05/04 05:40:50;;;;;;;3.92;3.53;;;14.30;61.10;;;9.48;100.00;95351.16;5265783;27;20025;-50
2024/05/04 05:43:16;;;;;;;5.18;3.30;;;14.60;61.00;;;9.62;100.00;95346.94;5267595;27;20057;-53
2024/05/04 05:45:42;;;;;;;3.45;2.88;;;14.70;60.70;;;9.74;100.00;95352.00;5267765;27;20457;-54
2024/05/04 05:48:08;;;;;;;3.97;3.20;;;14.80;60.50;;;9.65;100.00;95348.25;5265942;27;20009;-54
2024/05/04 05:50:34;;;;;;;3.92;3.00;;;14.90;60.10;;;9.62;99.75;95341.63;5267256;27;20555;-53
2024/05/04 05:53:04;;;;;;;4.18;3.22;;;15.00;59.90;;;9.77;99.38;95350.66;5266106;27;20018;-51
2024/05/04 05:55:31;;;;;;;3.60;3.25;;;15.00;59.70;;;9.84;99.01;95354.69;5267957;27;20057;-49
2024/05/04 05:57:56;;;;;;;3.67;3.20;;;15.10;59.50;;;9.98;97.45;95352.28;5264101;27;20018;-52
2024/05/04 06:00:22;;;;;;;3.35;3.00;;;15.20;59.30;;;10.12;96.59;95344.56;5266181;27;20024;-53
2024/05/04 06:02:49;;;;;;;2.97;2.67;;;15.40;59.10;;;10.18;95.15;95340.81;5261848;27;20476;-51
2024/05/04 06:05:15;;;;;;;4.05;3.08;;;15.50;58.90;;;10.30;94.55;95344.03;5261104;27;20020;-49
2024/05/04 06:07:41;;;;;;;3.22;2.90;;;15.60;58.60;;;10.51;94.95;95347.47;5267686;27;20021;-52
2024/05/04 06:10:08;;;;;;;4.00;2.80;;;15.80;58.40;;;10.77;91.26;95342.88;5265056;27;20080;-49
2024/05/04 06:12:34;;;;;;;3.83;2.97;;;16.20;58.20;;;10.96;89.06;95337.75;5261800;27;20022;-53
2024/05/04 06:14:59;;;;;;;3.20;2.90;;;16.60;57.70;;;11.31;86.92;95344.81;5263403;27;20509;-50
2024/05/04 06:17:29;;;;;;;2.80;2.53;;;17.00;57.30;;;11.66;85.50;95351.03;5263546;27;20006;-52
2024/05/04 06:19:58;;;;;;;5.50;2.78;;;17.30;56.90;;;11.94;84.24;95356.72;5265852;27;20393;-52
2024/05/04 06:22:24;;;;;;;3.97;2.78;;;17.60;56.40;;;12.11;82.08;95356.34;5264756;27;20286;-50
2024/05/04 06:24:50;;;;;;;4.78;2.90;;;17.80;56.10;;;12.24;79.98;95353.03;5271236;27;20388;-52
2024/05/04 06:27:16;;;;;;;3.17;2.85;;;17.90;56.10;;;12.41;78.75;95352.59;5270548;27;20758;-53
2024/05/04 06:29:44;;;;;;;6.57;3.50;;;18.20;55.10;;;12.50;75.49;95353.56;5271828;27;20025;-51
2024/05/04 06:32:10;;;;;;;3.42;3.13;;;18.40;54.50;;;12.67;74.87;95351.28;5260392;27;20024;-47
2024/05/04 06:34:41;;;;;;;3.78;3.30;;;18.70;53.90;;;13.01;74.45;95353.06;5269486;27;20021;-52
2024/05/04 06:37:07;;;;;;;4.55;3.40;;;19.00;53.10;;;13.17;72.79;95354.47;5270602;27;20010;-48
2024/05/04 06:39:33;;;;;;;4.60;3.63;;;19.30;52.80;;;13.43;72.05;95360.31;5270158;27;20103;-51
2024/05/04 06:41:59;;;;;;;3.80;3.40;;;19.70;52.30;;;13.68;69.16;95354.91;5268844;27;20017;-52
2024/05/04 06:44:25;;;;;;;3.60;3.20;;;20.00;51.70;;;13.99;69.70;95356.06;5269998;27;20029;-54
2024/05/04 06:46:53;;;;;;;4.97;3.60;;;20.30;51.30;;;14.34;67.87;95352.00;5264042;27;20025;-54
2024/05/04 06:49:19;;;;;;;4.78;3.40;;;20.70;50.70;;;14.54;66.45;95355.47;5270736;27;20010;-48
2024/05/04 06:51:45;;;;;;;3.97;3.60;;;21.00;50.20;;;14.70;65.92;95358.69;5270162;27;20079;-51
2024/05/04 06:54:10;;;;;;;4.20;3.80;;;21.20;49.50;;;14.69;65.05;95365.13;5266738;27;20029;-46
2024/05/04 06:56:36;;;;;;;4.13;3.50;;;21.40;49.00;;;14.53;65.01;95372.63;5269855;27;20574;-45
2024/05/04 06:59:04;;;;;;;4.10;3.38;;;21.30;48.40;;;14.49;65.02;95358.22;5268421;27;20505;-49
2024/05/04 07:01:30;;;;;;;3.30;3.00;;;21.20;47.90;;;14.52;65.58;95363.81;5273081;27;20002;-47
2024/05/04 07:03:56;;;;;;;3.53;3.22;;;21.10;47.80;;;14.56;65.71;95359.44;5275858;27;20483;-48
2024/05/04 07:06:22;;;;;;;4.15;3.75;;;21.00;47.60;;;14.66;65.08;95361.13;5269512;27;20013;-49
2024/05/04 07:08:47;;;;;;;4.32;3.80;;;20.90;47.50;;;14.61;65.80;95355.88;5269442;27;20010;-49
2024/05/04 07:11:13;;;;;;;3.53;3.10;;;20.90;47.60;;;14.64;65.19;95344.56;5271203;27;20002;-49
2024/05/04 07:13:39;;;;;;;3.95;3.53;;;20.80;47.40;;;14.72;65.27;95345.78;5269020;27;20642;-47
2024/05/04 07:16:05;;;;;;;5.32;3.47;;;20.90;47.40;;;14.59;65.30;95339.28;5270066;27;20016;-48
2024/05/04 07:18:31;;;;;;;4.80;4.00;;;21.00;47.30;;;14.60;66.29;95332.03;5268936;27;20020;-50
2024/05/04 07:20:57;;;;;;;4.68;4.18;;;21.00;47.00;;;14.74;66.20;95339.03;5269457;27;21055;-47
2024/05/04 07:23:23;;;;;;;5.13;3.92;;;21.10;46.90;;;14.83;65.79;95339.13;5267608;27;20081;-51
2024/05/04 07:25:49;;;;;;;4.45;4.00;;;21.10;46.70;;;14.97;64.72;95336.44;5269320;27;20017;-48
2024/05/04 07:28:15;;;;;;;7.05;4.30;;;21.20;46.50;;;14.85;64.13;95330.78;5268640;27;20025;-49
2024/05/04 07:30:41;;;;;;;5.90;4.13;;;21.20;46.30;;;14.92;63.69;95341.94;5267536;27;20018;-47
2024/05/04 07:33:06;;;;;;;4.72;4.32;;;21.30;46.00;;;14.97;63.89;95331.88;5269227;27;20084;-49
2024/05/04 07:35:32;;;;;;;4.15;3.85;;;21.50;45.60;;;15.11;63.38;95339.94;5267783;26;20006;-47
2024/05/04 07:37:58;;;;;;;5.78;4.20;;;21.80;45.20;;;15.48;63.17;95332.72;5272123;27;20112;-48
2024/05/04 07:40:24;;;;;;;4.50;4.10;;;22.20;44.80;;;15.78;61.53;95325.13;5279161;27;20009;-46
2024/05/04 07:42:50;;;;;;;4.43;4.03;;;22.50;44.40;;;16.01;60.83;95315.19;5268852;27;20014;-49
2024/05/04 07:45:15;;;;;;;6.43;4.10;;;22.80;44.00;;;16.17;60.25;95319.91;5269237;27;20404;-49
2024/05/04 07:47:41;;;;;;;4.45;4.05;;;23.00;43.50;;;16.41;59.52;95314.19;5267995;27;20006;-47
2024/05/04 07:50:08;;;;;;;5.68;4.20;;;23.30;43.00;;;16.54;58.17;95309.03;5268615;27;20053;-51
2024/05/04 07:52:39;;;;;;;5.07;4.35;;;23.50;42.40;;;16.56;58.04;95320.28;5267145;27;20069;-49
2024/05/04 07:55:05;;;;;;;5.22;4.20;;;23.70;41.90;;;16.70;57.14;95320.97;5276923;27;20014;-47
2024/05/04 07:57:32;;;;;;;4.70;4.30;;;24.00;41.60;;;16.38;56.55;95316.69;5275514;26;20460;-48
2024/05/04 07:59:58;;;;;;;6.25;4.15;;;24.00;41.20;;;16.08;56.76;95320.94;5274798;26;20422;-47
2024/05/04 08:02:24;;;;;;;3.97;3.65;;;23.90;40.90;;;16.19;56.75;95309.63;5290941;27;20009;-48
2024/05/04 08:04:50;;;;;;;5.45;3.95;;;23.80;40.70;;;16.09;57.22;95314.47;5276689;27;20020;-52
2024/05/04 08:07:15;;;;;;;4.05;3.70;;;23.70;40.70;;;15.96;58.89;95324.97;5293313;26;20009;-47
2024/05/04 08:09:41;;;;;;;4.38;3.70;;;23.60;40.40;;;16.24;56.24;95318.69;5280320;27;20082;-47
2024/05/04 08:12:10;;;;;;;4.50;3.78;;;23.50;40.40;;;16.39;56.54;95327.16;5273025;26;20020;-49
2024/05/04 08:14:36;;;;;;;4.40;3.83;;;23.30;40.50;;;16.34;56.65;95321.13;5271637;27;20466;-47
2024/05/04 08:17:05;;;;;;;4.93;3.28;;;23.20;40.70;;;15.54;58.67;95320.00;5279926;27;20012;-47
2024/05/04 08:19:30;;;;;;;4.22;3.42;;;23.10;40.60;;;15.68;58.84;95318.09;5284427;27;20136;-46
2024/05/04 08:21:56;;;;;;;3.75;3.45;;;23.10;40.80;;;16.01;56.13;95321.34;5278255;27;20013;-47
2024/05/04 08:24:22;;;;;;;4.32;3.35;;;23.00;40.60;;;16.17;54.50;95325.28;5272381;27;20013;-50
2024/05/04 08:26:48;;;;;;;4.13;2.92;;;23.10;40.30;;;16.39;53.77;95311.03;5276949;27;20002;-44
2024/05/04 08:29:16;;;;;;;5.00;2.90;;;23.30;40.20;;;16.44;54.83;95312.78;5275097;27;20013;-45
2024/05/04 08:31:42;;;;;;;4.25;3.40;;;23.50;39.80;;;16.52;53.57;95301.28;5271425;27;20020;-54
2024/05/04 08:34:08;;;;;;;3.53;2.90;;;23.60;39.40;;;16.37;53.51;95310.53;5274848;27;20375;-51
2024/05/04 08:36:34;;;;;;;3.67;3.38;;;23.60;39.20;;;16.52;53.45;95300.50;5278021;27;20104;-45
2024/05/04 08:38:59;;;;;;;4.43;3.03;;;23.50;39.10;;;16.46;53.77;95301.75;5276418;27;20001;-45
2024/05/04 08:41:25;;;;;;;3.28;2.90;;;23.60;39.00;;;16.17;54.93;95300.31;5274719;27;20021;-46
2024/05/04 08:43:53;;;;;;;5.00;3.10;;;23.70;38.80;;;16.53;53.67;95302.09;5276636;27;20370;-46
2024/05/04 08:46:26;;;;;;;4.03;3.00;;;23.90;38.50;;;17.05;52.13;95302.34;5278464;27;20009;-53
2024/05/04 08:48:54;;;;;;;3.35;2.92;;;24.30;38.20;;;17.30;51.90;95312.38;5299622;26;20435;-49
2024/05/04 08:51:22;;;;;;;3.40;3.10;;;24.60;37.90;;;17.71;51.41;95304.97;5279457;27;20009;-47
2024/05/04 08:53:48;;;;;;;5.43;3.03;;;24.80;37.80;;;17.98;49.45;95309.28;5274086;27;20388;-50
2024/05/04 08:56:19;;;;;;;4.30;2.85;;;25.10;37.20;;;17.98;49.13;95301.97;5283006;27;20077;-50
2024/05/04 08:58:54;;;;;;;3.45;3.03;;;25.40;36.70;;;18.09;48.81;95304.38;5285002;27;20024;-48
2024/05/04 09:01:24;;;;;;;3.30;3.00;;;25.60;36.20;;;18.21;48.05;95304.50;5305008;26;20001;-53
2024/05/04 09:03:52;;;;;;;3.20;2.90;;;25.80;35.90;;;18.24;47.47;95307.34;5278252;27;20016;-48
2024/05/04 09:06:20;;;;;;;3.15;2.85;;;26.10;35.50;;;18.50;47.25;95306.50;5270534;27;20001;-48
2024/05/04 09:08:46;;;;;;;3.03;2.80;;;26.20;35.10;;;18.80;46.54;95307.38;5290556;27;20365;-48
2024/05/04 09:11:12;;;;;;;4.45;3.00;;;26.30;35.00;;;19.14;46.00;95305.66;5281550;26;20006;-50
2024/05/04 09:13:38;;;;;;;2.60;2.40;;;26.30;35.00;;;19.10;45.54;95308.22;5276781;26;20001;-49
2024/05/04 09:16:05;;;;;;;4.13;3.00;;;26.40;34.70;;;18.62;45.77;95305.84;5283615;27;20020;-50
2024/05/04 09:18:32;;;;;;;2.88;2.67;;;26.40;34.40;;;18.64;45.93;95293.59;5283479;26;20378;-50
2024/05/04 09:20:58;;;;;;;4.32;3.28;;;26.30;34.10;;;18.77;46.21;95307.25;5281832;27;20015;-50
2024/05/04 09:23:24;;;;;;;3.00;2.70;;;26.20;34.00;;;18.84;45.65;95302.16;5285972;27;20014;-48
2024/05/04 09:25:50;;;;;;;3.90;2.72;;;26.20;33.90;;;18.69;46.57;95304.22;5282723;26;20001;-47
2024/05/04 09:28:15;;;;;;;3.30;3.00;;;26.20;34.00;;;18.97;46.63;95303.84;5314476;26;20483;-49
2024/05/04 09:30:41;;;;;;;3.00;2.80;;;26.20;34.10;;;19.00;46.14;95302.41;5279744;27;20016;-48
2024/05/04 09:33:10;;;;;;;3.00;2.80;;;26.30;34.20;;;18.99;46.12;95292.69;5282499;27;20347;-48
2024/05/04 09:35:39;;;;;;;5.60;3.35;;;26.50;33.90;;;18.77;46.08;95293.75;5300350;26;20001;-48
2024/05/04 09:38:33;;;;;;;3.10;2.90;;;26.70;33.60;;;19.14;46.14;95292.94;5281435;27;20021;-50
2024/05/04 09:41:01;;;;;;;3.50;3.20;;;26.90;33.60;;;19.34;44.53;95288.72;5282481;27;20080;-48
2024/05/04 09:43:28;;;;;;;3.45;2.95;;;27.20;33.10;;;19.52;44.39;95292.06;5285639;27;20041;-45
2024/05/04 09:45:59;;;;;;;3.25;3.03;;;27.50;32.80;;;19.84;44.25;95290.63;5267512;27;20037;-47
2024/05/04 09:48:28;;;;;;;3.63;3.30;;;27.60;32.50;;;19.78;43.50;95291.94;5282732;27;20086;-47
2024/05/04 09:50:57;;;;;;;3.47;3.17;;;27.70;32.40;;;18.44;45.30;95297.78;5314911;26;20132;-45
2024/05/04 09:53:22;;;;;;;3.60;3.20;;;27.60;31.90;;;18.06;46.63;95297.72;5275939;27;20002;-49
2024/05/04 09:55:51;;;;;;;3.53;2.90;;;27.50;32.40;;;18.14;47.28;95299.59;5277143;27;20024;-49
2024/05/04 09:58:24;;;;;;;3.55;3.10;;;27.50;31.60;;;19.08;45.90;95298.84;5273736;27;20043;-47
2024/05/04 10:00:54;;;;;;;3.72;3.20;;;27.70;31.70;;;19.57;43.66;95293.81;5280260;27;20363;-48
2024/05/04 10:03:25;;;;;;;4.72;3.50;;;28.10;32.30;;;19.83;43.32;95299.03;5312362;26;20648;-47
2024/05/04 10:05:52;;;;;;;3.63;3.30;;;28.50;31.30;;;20.39;42.34;95293.28;5251288;27;20006;-47
2024/05/04 10:08:19;;;;;;;3.42;3.13;;;28.70;31.00;;;20.72;42.47;95291.38;5311800;26;20014;-48
2024/05/04 10:10:48;;;;;;;3.50;3.13;;;28.80;30.90;;;21.03;40.75;95285.44;5281242;27;20020;-53
2024/05/04 10:13:15;;;;;;;3.47;2.88;;;29.00;30.50;;;21.23;40.67;95288.34;5303788;26;20022;-47
2024/05/04 10:15:42;;;;;;;3.10;2.90;;;29.20;30.40;;;21.52;39.57;95300.88;5284125;27;20023;-47
2024/05/04 10:18:10;;;;;;;3.75;3.30;;;29.50;30.10;;;21.51;40.23;95298.53;5272968;27;20076;-49